createdAt,value
2017-09-09T00:00:12.964Z,23.20
2017-09-09T00:02:42.122Z,23.20
2017-09-09T00:05:12.135Z,23.20
2017-09-09T00:07:42.054Z,23.10
2017-09-09T00:10:11.250Z,23.10
2017-09-09T00:12:40.491Z,23.20
2017-09-09T00:15:10.367Z,23.20
2017-09-09T00:17:48.381Z,23.30
2017-09-09T00:20:19.819Z,23.30
2017-09-09T00:22:48.577Z,23.30
2017-09-09T00:25:18.630Z,23.20
2017-09-09T00:27:48.106Z,23.30
2017-09-09T00:30:18.045Z,23.30
2017-09-09T00:32:48.178Z,23.30
2017-09-09T00:35:17.059Z,23.30
2017-09-09T00:37:46.293Z,23.30
2017-09-09T00:40:15.273Z,23.30
2017-09-09T00:42:45.370Z,23.00
2017-09-09T00:45:14.436Z,23.00
2017-09-09T00:47:43.354Z,22.90
2017-09-09T00:50:12.271Z,22.90
2017-09-09T00:52:42.381Z,22.90
2017-09-09T00:55:12.700Z,22.90
2017-09-09T00:57:41.831Z,22.90
2017-09-09T01:00:11.050Z,23.00
2017-09-09T01:02:40.798Z,22.80
2017-09-09T01:05:11.853Z,22.70
2017-09-09T01:07:41.671Z,22.70
2017-09-09T01:10:21.365Z,22.70
2017-09-09T01:13:03.105Z,22.70
2017-09-09T01:15:34.144Z,22.80
2017-09-09T01:18:03.349Z,22.80
2017-09-09T01:20:32.405Z,22.70
2017-09-09T01:23:02.075Z,22.70
2017-09-09T01:25:32.048Z,22.70
2017-09-09T01:28:02.334Z,22.80
2017-09-09T01:30:31.573Z,22.70
2017-09-09T01:33:01.348Z,22.80
2017-09-09T01:35:30.552Z,22.80
2017-09-09T01:37:59.475Z,22.80
2017-09-09T01:40:28.366Z,22.80
2017-09-09T01:43:00.730Z,22.90
2017-09-09T01:45:29.658Z,22.80
2017-09-09T01:47:58.826Z,23.00
2017-09-09T01:50:28.952Z,23.00
2017-09-09T01:52:58.861Z,23.00
2017-09-09T01:55:28.169Z,23.00
2017-09-09T01:57:58.085Z,22.90
2017-09-09T02:00:28.199Z,22.90
2017-09-09T02:02:58.111Z,23.00
2017-09-09T02:05:27.183Z,22.90
2017-09-09T02:07:56.304Z,23.00
2017-09-09T02:10:26.016Z,23.00
2017-09-09T02:12:55.109Z,23.00
2017-09-09T02:15:24.276Z,23.00
2017-09-09T02:17:53.299Z,23.00
2017-09-09T02:20:22.293Z,23.00
2017-09-09T02:22:51.211Z,23.00
2017-09-09T02:25:21.112Z,22.90
2017-09-09T02:27:50.417Z,22.80
2017-09-09T02:30:19.292Z,22.90
2017-09-09T02:32:48.310Z,22.80
2017-09-09T02:35:18.193Z,22.80
2017-09-09T02:37:47.095Z,22.90
2017-09-09T02:40:16.499Z,22.80
2017-09-09T02:42:45.407Z,22.80
2017-09-09T02:45:14.192Z,22.80
2017-09-09T02:47:43.284Z,22.80
2017-09-09T02:50:12.982Z,22.80
2017-09-09T02:52:41.972Z,22.70
2017-09-09T02:55:11.684Z,22.70
2017-09-09T02:57:40.524Z,22.70
2017-09-09T03:00:09.463Z,22.60
2017-09-09T03:02:38.559Z,22.60
2017-09-09T03:05:07.552Z,22.50
2017-09-09T03:07:36.445Z,22.40
2017-09-09T03:10:05.335Z,22.40
2017-09-09T03:12:34.427Z,22.40
2017-09-09T03:15:04.149Z,22.50
2017-09-09T03:17:33.861Z,22.50
2017-09-09T03:20:02.700Z,22.50
2017-09-09T03:22:31.867Z,22.60
2017-09-09T03:25:01.166Z,22.60
2017-09-09T03:27:29.943Z,22.60
2017-09-09T03:29:59.029Z,22.70
2017-09-09T03:32:28.070Z,22.70
2017-09-09T03:34:58.040Z,22.70
2017-09-09T03:37:27.748Z,22.70
2017-09-09T03:39:57.665Z,22.70
2017-09-09T03:42:26.559Z,22.80
2017-09-09T03:44:55.339Z,22.80
2017-09-09T03:47:24.229Z,22.80
2017-09-09T03:49:52.919Z,22.70
2017-09-09T03:52:21.711Z,22.80
2017-09-09T03:54:50.804Z,22.80
2017-09-09T03:57:19.905Z,22.80
2017-09-09T03:59:48.791Z,22.80
2017-09-09T04:02:17.681Z,22.90
2017-09-09T04:04:48.547Z,22.90
2017-09-09T04:07:18.659Z,22.90
2017-09-09T04:09:48.348Z,23.00
2017-09-09T04:12:17.855Z,23.00
2017-09-09T04:14:46.554Z,23.00
2017-09-09T04:17:15.535Z,23.00
2017-09-09T04:19:44.425Z,23.00
2017-09-09T04:22:13.328Z,22.90
2017-09-09T04:24:42.207Z,22.80
2017-09-09T04:27:10.992Z,22.90
2017-09-09T04:29:40.057Z,22.90
2017-09-09T04:32:09.391Z,23.00
2017-09-09T04:34:38.279Z,23.10
2017-09-09T04:37:07.251Z,23.10
2017-09-09T04:39:37.193Z,23.10
2017-09-09T04:42:06.592Z,23.10
2017-09-09T04:44:35.490Z,23.10
2017-09-09T04:47:04.375Z,23.10
2017-09-09T04:49:34.290Z,23.10
2017-09-09T04:52:03.304Z,23.00
2017-09-09T04:54:32.281Z,23.00
2017-09-09T04:57:01.990Z,23.00
2017-09-09T04:59:31.190Z,22.90
2017-09-09T05:02:00.192Z,23.00
2017-09-09T05:04:29.178Z,23.00
2017-09-09T05:06:59.401Z,22.90
2017-09-09T05:09:28.606Z,22.90
2017-09-09T05:11:57.601Z,23.00
2017-09-09T05:14:26.543Z,23.10
2017-09-09T05:16:56.255Z,23.10
2017-09-09T05:19:25.304Z,23.10
2017-09-09T05:21:54.277Z,23.10
2017-09-09T05:24:23.374Z,23.10
2017-09-09T05:26:52.265Z,23.10
2017-09-09T05:29:21.193Z,23.10
2017-09-09T05:31:50.222Z,23.10
2017-09-09T05:34:19.149Z,23.10
2017-09-09T05:36:48.286Z,23.10
2017-09-09T05:39:18.051Z,23.10
2017-09-09T05:41:47.970Z,23.10
2017-09-09T05:44:16.754Z,23.10
2017-09-09T05:46:45.746Z,23.10
2017-09-09T05:49:14.761Z,23.10
2017-09-09T05:51:43.734Z,23.10
2017-09-09T05:54:13.521Z,23.10
2017-09-09T05:56:42.338Z,23.20
2017-09-09T05:59:11.126Z,23.10
2017-09-09T06:01:39.828Z,23.10
2017-09-09T06:04:08.966Z,23.10
2017-09-09T06:06:38.002Z,23.20
2017-09-09T06:09:06.902Z,23.20
2017-09-09T06:11:35.786Z,23.20
2017-09-09T06:14:05.082Z,23.20
2017-09-09T06:16:34.717Z,23.20
2017-09-09T06:19:03.786Z,23.20
2017-09-09T06:21:32.884Z,23.10
2017-09-09T06:24:01.997Z,23.20
2017-09-09T06:26:31.178Z,23.30
2017-09-09T06:29:00.208Z,23.30
2017-09-09T06:31:30.498Z,23.30
2017-09-09T06:33:59.601Z,23.40
2017-09-09T06:36:28.482Z,23.40
2017-09-09T06:38:57.381Z,23.50
2017-09-09T06:41:27.246Z,23.50
2017-09-09T06:43:56.203Z,23.60
2017-09-09T06:46:25.072Z,23.60
2017-09-09T06:48:54.080Z,23.50
2017-09-09T06:51:23.782Z,23.50
2017-09-09T06:53:53.977Z,23.50
2017-09-09T06:56:23.614Z,23.50
2017-09-09T06:59:08.365Z,23.60
2017-09-09T07:01:37.258Z,23.60
2017-09-09T07:04:06.149Z,23.70
2017-09-09T07:06:35.241Z,23.70
2017-09-09T07:09:04.443Z,23.60
2017-09-09T07:11:33.339Z,23.70
2017-09-09T07:14:02.429Z,23.70
2017-09-09T07:16:31.323Z,23.70
2017-09-09T07:19:00.536Z,23.70
2017-09-09T07:21:30.229Z,23.90
2017-09-09T07:24:00.277Z,23.80
2017-09-09T07:26:29.355Z,23.90
2017-09-09T07:28:58.341Z,23.80
2017-09-09T07:31:27.504Z,23.80
2017-09-09T07:33:56.540Z,23.90
2017-09-09T07:36:25.518Z,23.70
2017-09-09T07:38:54.822Z,23.70
2017-09-09T07:41:23.715Z,23.70
2017-09-09T07:43:53.427Z,23.90
2017-09-09T07:46:22.314Z,23.90
2017-09-09T07:48:51.296Z,23.90
2017-09-09T07:51:20.475Z,23.90
2017-09-09T07:53:49.499Z,24.00
2017-09-09T07:56:18.828Z,24.10
2017-09-09T07:58:48.183Z,24.10
2017-09-09T08:01:17.100Z,24.30
2017-09-09T08:03:46.808Z,24.50
2017-09-09T08:06:15.811Z,24.60
2017-09-09T08:08:45.216Z,24.80
2017-09-09T08:11:14.269Z,24.50
2017-09-09T08:13:43.387Z,24.40
2017-09-09T08:16:12.590Z,24.50
2017-09-09T08:18:43.215Z,24.50
2017-09-09T08:21:15.303Z,24.50
2017-09-09T08:23:44.588Z,24.60
2017-09-09T08:26:13.582Z,24.70
2017-09-09T08:28:43.023Z,24.90
2017-09-09T08:31:12.408Z,25.10
2017-09-09T08:33:42.320Z,25.30
2017-09-09T08:36:12.968Z,25.70
2017-09-09T08:38:42.491Z,25.90
2017-09-09T08:41:11.989Z,26.20
2017-09-09T08:43:44.566Z,26.10
2017-09-09T08:46:14.801Z,26.00
2017-09-09T08:48:45.453Z,25.90
2017-09-09T08:51:18.316Z,25.90
2017-09-09T08:53:48.019Z,25.80
2017-09-09T08:56:17.198Z,25.80
2017-09-09T08:58:47.102Z,25.90
2017-09-09T09:01:16.393Z,25.90
2017-09-09T09:03:46.869Z,26.00
2017-09-09T09:06:19.507Z,26.10
2017-09-09T09:08:49.728Z,26.30
2017-09-09T09:11:18.710Z,26.40
2017-09-09T09:13:47.811Z,26.40
2017-09-09T09:16:17.592Z,26.30
2017-09-09T09:18:46.903Z,26.20
2017-09-09T09:21:16.446Z,26.10
2017-09-09T09:23:45.727Z,26.00
2017-09-09T09:26:14.901Z,26.20
2017-09-09T09:28:45.410Z,26.40
2017-09-09T09:31:16.370Z,26.70
2017-09-09T09:33:45.710Z,26.70
2017-09-09T09:36:14.748Z,27.00
2017-09-09T09:38:44.185Z,27.30
2017-09-09T09:41:14.105Z,27.40
2017-09-09T09:43:43.568Z,27.40
2017-09-09T09:46:12.708Z,27.80
2017-09-09T09:48:43.180Z,27.70
2017-09-09T09:51:12.638Z,27.60
2017-09-09T09:53:42.957Z,27.30
2017-09-09T09:56:12.474Z,27.30
2017-09-09T09:58:42.194Z,26.90
2017-09-09T10:01:11.362Z,26.40
2017-09-09T10:03:40.321Z,26.20
2017-09-09T10:06:09.202Z,25.90
2017-09-09T10:08:38.361Z,25.90
2017-09-09T10:11:07.597Z,26.20
2017-09-09T10:13:36.424Z,26.50
2017-09-09T10:16:06.474Z,26.80
2017-09-09T10:18:36.406Z,27.20
2017-09-09T10:21:06.149Z,27.30
2017-09-09T10:23:35.913Z,27.00
2017-09-09T10:26:06.330Z,26.80
2017-09-09T10:28:37.069Z,26.50
2017-09-09T10:31:06.532Z,26.50
2017-09-09T10:33:37.107Z,26.20
2017-09-09T10:36:07.012Z,26.20
2017-09-09T10:38:37.156Z,25.80
2017-09-09T10:41:06.232Z,25.80
2017-09-09T10:43:36.303Z,25.40
2017-09-09T10:46:06.531Z,25.10
2017-09-09T10:48:36.400Z,25.00
2017-09-09T10:51:05.570Z,24.90
2017-09-09T10:53:34.776Z,24.80
2017-09-09T10:56:03.986Z,24.80
2017-09-09T10:58:35.608Z,24.50
2017-09-09T11:01:07.366Z,24.30
2017-09-09T11:03:38.436Z,24.40
2017-09-09T11:06:09.722Z,24.20
2017-09-09T11:08:38.922Z,23.90
2017-09-09T11:11:08.462Z,23.60
2017-09-09T11:13:38.761Z,23.50
2017-09-09T11:16:07.827Z,23.50
2017-09-09T11:18:37.416Z,23.30
2017-09-09T11:21:06.529Z,23.20
2017-09-09T11:23:38.112Z,22.80
2017-09-09T11:26:08.161Z,22.80
2017-09-09T11:28:37.825Z,22.70
2017-09-09T11:31:07.597Z,22.70
2017-09-09T11:33:36.820Z,22.60
2017-09-09T11:36:06.251Z,22.70
2017-09-09T11:38:35.411Z,22.80
2017-09-09T11:41:06.202Z,22.80
2017-09-09T11:43:35.731Z,22.80
2017-09-09T11:46:05.758Z,22.90
2017-09-09T11:48:34.759Z,22.90
2017-09-09T11:51:04.670Z,22.80
2017-09-09T11:53:35.165Z,22.80
2017-09-09T11:56:04.772Z,22.80
2017-09-09T11:58:33.900Z,22.80
2017-09-09T12:01:03.261Z,22.80
2017-09-09T12:03:32.503Z,22.80
2017-09-09T12:06:02.987Z,22.70
2017-09-09T12:08:32.044Z,22.60
2017-09-09T12:11:02.665Z,22.00
2017-09-09T12:13:32.099Z,21.20
2017-09-09T12:16:02.859Z,20.60
2017-09-09T12:18:33.381Z,20.40
2017-09-09T12:21:02.856Z,20.40
2017-09-09T12:23:31.951Z,20.50
2017-09-09T12:26:01.518Z,20.40
2017-09-09T12:28:31.357Z,20.20
2017-09-09T12:31:01.456Z,20.00
2017-09-09T12:33:31.525Z,19.90
2017-09-09T12:36:00.907Z,19.70
2017-09-09T12:38:30.687Z,19.50
2017-09-09T12:41:00.224Z,19.30
2017-09-09T12:43:29.798Z,19.30
2017-09-09T12:45:59.441Z,19.10
2017-09-09T12:48:28.202Z,19.10
2017-09-09T12:50:58.313Z,19.10
2017-09-09T12:53:27.270Z,19.20
2017-09-09T12:55:57.225Z,19.50
2017-09-09T12:58:26.160Z,19.50
2017-09-09T13:00:56.187Z,19.90
2017-09-09T13:03:25.731Z,20.00
2017-09-09T13:05:54.807Z,19.90
2017-09-09T13:08:24.787Z,20.00
2017-09-09T13:10:53.647Z,20.10
2017-09-09T13:13:22.507Z,20.10
2017-09-09T13:15:51.493Z,20.10
2017-09-09T13:18:23.192Z,20.10
2017-09-09T13:20:55.189Z,20.30
2017-09-09T13:23:26.534Z,20.40
2017-09-09T13:25:56.864Z,20.40
2017-09-09T13:28:26.973Z,20.40
2017-09-09T13:30:56.842Z,20.40
2017-09-09T13:33:25.958Z,20.40
2017-09-09T13:35:55.403Z,20.40
2017-09-09T13:38:24.875Z,20.50
2017-09-09T13:40:55.016Z,20.50
2017-09-09T13:43:24.204Z,20.60
2017-09-09T13:45:53.539Z,20.60
2017-09-09T13:48:23.358Z,20.70
2017-09-09T13:50:52.478Z,20.70
2017-09-09T13:53:21.803Z,20.80
2017-09-09T13:55:50.707Z,20.70
2017-09-09T13:58:21.004Z,20.50
2017-09-09T14:00:50.395Z,20.50
2017-09-09T14:03:19.863Z,20.50
2017-09-09T14:05:49.897Z,20.40
2017-09-09T14:08:19.199Z,20.30
2017-09-09T14:10:48.290Z,20.30
2017-09-09T14:13:20.836Z,20.20
2017-09-09T14:15:49.964Z,20.00
2017-09-09T14:18:21.268Z,19.90
2017-09-09T14:20:50.768Z,20.00
2017-09-09T14:23:21.590Z,19.90
2017-09-09T14:25:53.013Z,19.90
2017-09-09T14:28:23.050Z,19.90
2017-09-09T14:30:52.732Z,19.90
2017-09-09T14:33:22.050Z,19.80
2017-09-09T14:35:53.859Z,19.70
2017-09-09T14:38:24.333Z,19.60
2017-09-09T14:40:53.671Z,19.60
2017-09-09T14:43:27.902Z,19.60
2017-09-09T14:46:00.192Z,19.60
2017-09-09T14:48:33.198Z,19.70
2017-09-09T14:51:02.365Z,19.70
2017-09-09T14:53:33.595Z,19.70
2017-09-09T14:56:04.627Z,19.60
2017-09-09T14:58:34.304Z,19.60
2017-09-09T15:01:07.202Z,19.60
2017-09-09T15:03:42.413Z,19.70
2017-09-09T15:06:13.459Z,19.70
2017-09-09T15:08:46.209Z,19.80
2017-09-09T15:11:21.995Z,19.80
2017-09-09T15:13:56.623Z,19.80
2017-09-09T15:16:28.945Z,19.80
2017-09-09T15:18:59.060Z,19.80
2017-09-09T15:21:30.022Z,19.90
2017-09-09T15:24:02.465Z,20.00
2017-09-09T15:26:32.510Z,20.00
2017-09-09T15:29:06.647Z,20.00
2017-09-09T15:31:37.296Z,20.10
2017-09-09T15:34:09.988Z,20.20
2017-09-09T15:36:40.568Z,20.20
2017-09-09T15:39:10.329Z,20.30
2017-09-09T15:41:42.079Z,20.20
2017-09-09T15:44:13.538Z,20.20
2017-09-09T15:46:42.619Z,20.30
2017-09-09T15:49:12.037Z,20.40
2017-09-09T15:51:41.370Z,20.40
2017-09-09T15:54:10.535Z,20.40
2017-09-09T15:56:41.380Z,20.30
2017-09-09T15:59:11.085Z,20.20
2017-09-09T16:01:40.523Z,20.20
2017-09-09T16:04:11.265Z,20.20
2017-09-09T16:06:42.483Z,20.30
2017-09-09T16:09:12.290Z,20.20
2017-09-09T16:11:41.481Z,20.20
2017-09-09T16:14:10.894Z,20.10
2017-09-09T16:16:40.850Z,20.10
2017-09-09T16:19:11.200Z,20.00
2017-09-09T16:21:40.576Z,20.00
2017-09-09T16:24:09.765Z,20.00
2017-09-09T16:26:40.090Z,20.00
2017-09-09T16:29:09.699Z,20.00
2017-09-09T16:31:39.017Z,20.00
2017-09-09T16:34:09.770Z,20.10
2017-09-09T16:36:40.501Z,20.10
2017-09-09T16:39:09.962Z,20.10
2017-09-09T16:41:40.084Z,20.20
2017-09-09T16:44:09.746Z,20.20
2017-09-09T16:46:42.534Z,20.20
2017-09-09T16:49:11.989Z,20.20
2017-09-09T16:51:42.393Z,20.30
2017-09-09T16:54:12.521Z,20.30
2017-09-09T16:56:42.809Z,20.30
2017-09-09T16:59:15.378Z,20.30
2017-09-09T17:01:46.372Z,20.50
2017-09-09T17:04:15.544Z,20.40
2017-09-09T17:06:45.328Z,20.40
2017-09-09T17:09:15.141Z,20.50
2017-09-09T17:11:46.288Z,20.60
2017-09-09T17:14:16.265Z,20.60
2017-09-09T17:16:47.391Z,20.60
2017-09-09T17:19:17.415Z,20.50
2017-09-09T17:21:53.287Z,20.40
2017-09-09T17:24:22.836Z,20.50
2017-09-09T17:26:52.215Z,20.40
2017-09-09T17:29:22.780Z,20.30
2017-09-09T17:31:52.034Z,20.30
2017-09-09T17:34:21.600Z,20.30
2017-09-09T17:36:51.839Z,20.20
2017-09-09T17:39:21.395Z,20.20
2017-09-09T17:41:51.933Z,20.10
2017-09-09T17:44:21.351Z,20.00
2017-09-09T17:46:50.452Z,20.00
2017-09-09T17:49:19.938Z,20.00
2017-09-09T17:51:50.308Z,20.00
2017-09-09T17:54:20.433Z,19.90
2017-09-09T17:56:50.299Z,19.90
2017-09-09T17:59:20.320Z,19.80
2017-09-09T18:01:50.378Z,19.80
2017-09-09T18:04:19.669Z,19.80
2017-09-09T18:06:48.939Z,19.90
2017-09-09T18:09:18.552Z,19.80
2017-09-09T18:11:47.620Z,19.80
2017-09-09T18:14:16.662Z,19.70
2017-09-09T18:16:46.196Z,19.70
2017-09-09T18:19:15.512Z,19.70
2017-09-09T18:21:44.810Z,19.60
2017-09-09T18:24:14.246Z,19.60
2017-09-09T18:26:43.735Z,19.50
2017-09-09T18:29:13.054Z,19.50
2017-09-09T18:31:42.427Z,19.50
2017-09-09T18:34:12.623Z,19.50
2017-09-09T18:36:43.490Z,19.50
2017-09-09T18:39:13.454Z,19.40
2017-09-09T18:41:43.396Z,19.40
2017-09-09T18:44:14.296Z,19.40
2017-09-09T18:46:45.342Z,19.40
2017-09-09T18:49:15.004Z,19.40
2017-09-09T18:51:44.318Z,19.30
2017-09-09T18:54:13.176Z,19.30
2017-09-09T18:56:42.897Z,19.30
2017-09-09T18:59:12.786Z,19.30
2017-09-09T19:01:42.456Z,19.30
2017-09-09T19:04:11.925Z,19.30
2017-09-09T19:06:42.383Z,19.30
2017-09-09T19:09:11.570Z,19.30
2017-09-09T19:11:41.456Z,19.30
2017-09-09T19:14:10.986Z,19.30
2017-09-09T19:16:41.836Z,19.30
2017-09-09T19:19:11.120Z,19.30
2017-09-09T19:21:41.237Z,19.40
2017-09-09T19:24:11.021Z,19.40
2017-09-09T19:26:41.641Z,19.30
2017-09-09T19:29:12.000Z,19.30
2017-09-09T19:31:41.075Z,19.30
2017-09-09T19:34:10.860Z,19.30
2017-09-09T19:36:40.066Z,19.40
2017-09-09T19:39:09.685Z,19.40
2017-09-09T19:41:38.934Z,19.50
2017-09-09T19:44:08.032Z,19.50
2017-09-09T19:46:37.065Z,19.50
2017-09-09T19:49:06.985Z,19.50
2017-09-09T19:51:36.270Z,19.50
2017-09-09T19:54:05.759Z,19.40
2017-09-09T19:56:34.887Z,19.40
2017-09-09T19:59:04.279Z,19.30
2017-09-09T20:01:34.186Z,19.40
2017-09-09T20:04:04.946Z,19.40
2017-09-09T20:06:34.647Z,19.40
2017-09-09T20:09:03.936Z,19.30
2017-09-09T20:11:33.076Z,19.10
2017-09-09T20:14:02.552Z,19.10
2017-09-09T20:16:31.601Z,19.10
2017-09-09T20:19:01.080Z,19.10
2017-09-09T20:21:30.249Z,19.20
2017-09-09T20:23:59.242Z,19.20
2017-09-09T20:26:28.300Z,19.20
2017-09-09T20:28:57.313Z,19.20
2017-09-09T20:31:26.853Z,19.20
2017-09-09T20:33:56.311Z,19.20
2017-09-09T20:36:25.763Z,19.20
2017-09-09T20:38:54.898Z,19.20
2017-09-09T20:41:24.060Z,19.20
2017-09-09T20:43:53.343Z,19.10
2017-09-09T20:46:23.272Z,19.10
2017-09-09T20:48:52.408Z,19.10
2017-09-09T20:51:22.225Z,19.20
2017-09-09T20:53:51.628Z,19.20
2017-09-09T20:56:20.941Z,19.10
2017-09-09T20:58:51.368Z,19.20
2017-09-09T21:01:20.818Z,19.30
2017-09-09T21:03:50.268Z,19.20
2017-09-09T21:06:19.640Z,19.10
2017-09-09T21:08:49.112Z,19.10
2017-09-09T21:11:19.198Z,19.10
2017-09-09T21:13:48.443Z,19.10
2017-09-09T21:16:17.811Z,19.10
2017-09-09T21:18:48.161Z,19.20
2017-09-09T21:21:18.484Z,19.20
2017-09-09T21:23:48.777Z,19.20
2017-09-09T21:26:19.237Z,19.20
2017-09-09T21:28:48.855Z,19.20
2017-09-09T21:31:19.518Z,19.10
2017-09-09T21:33:48.941Z,19.10
2017-09-09T21:36:18.195Z,19.00
2017-09-09T21:38:47.630Z,19.00
2017-09-09T21:41:17.130Z,19.10
2017-09-09T21:43:46.705Z,19.30
2017-09-09T21:46:16.464Z,19.30
2017-09-09T21:48:45.491Z,19.20
2017-09-09T21:51:18.115Z,19.10
2017-09-09T21:53:47.560Z,19.10
2017-09-09T21:56:18.766Z,19.20
2017-09-09T21:58:47.678Z,19.20
2017-09-09T22:01:17.003Z,19.20
2017-09-09T22:03:47.079Z,19.10
2017-09-09T22:06:16.662Z,19.10
2017-09-09T22:08:46.265Z,19.10
2017-09-09T22:11:15.344Z,19.10
2017-09-09T22:13:44.875Z,19.20
2017-09-09T22:16:14.566Z,19.10
2017-09-09T22:18:44.889Z,19.10
2017-09-09T22:21:14.465Z,19.10
2017-09-09T22:23:43.600Z,19.10
2017-09-09T22:26:13.117Z,19.10
2017-09-09T22:28:42.635Z,19.10
2017-09-09T22:31:11.901Z,19.20
2017-09-09T22:33:43.344Z,19.20
2017-09-09T22:36:13.555Z,19.20
2017-09-09T22:38:43.572Z,19.10
2017-09-09T22:41:13.929Z,19.00
2017-09-09T22:43:42.886Z,19.10
2017-09-09T22:46:11.903Z,19.10
2017-09-09T22:48:41.220Z,19.10
2017-09-09T22:51:10.722Z,19.10
2017-09-09T22:53:40.196Z,19.10
2017-09-09T22:56:09.760Z,19.20
2017-09-09T22:58:39.032Z,19.10
2017-09-09T23:01:08.304Z,19.10
2017-09-09T23:03:38.575Z,19.20
2017-09-09T23:06:07.746Z,19.10
2017-09-09T23:08:37.041Z,19.20
2017-09-09T23:11:06.342Z,19.10
2017-09-09T23:13:35.437Z,19.10
2017-09-09T23:16:04.685Z,19.10
2017-09-09T23:18:33.688Z,19.10
2017-09-09T23:21:03.351Z,19.10
2017-09-09T23:23:33.414Z,19.10
2017-09-09T23:26:02.507Z,19.20
2017-09-09T23:28:31.799Z,19.20
2017-09-09T23:31:01.063Z,19.30
2017-09-09T23:33:30.060Z,19.30
2017-09-09T23:35:59.393Z,19.30
2017-09-09T23:38:28.492Z,19.30
2017-09-09T23:40:57.643Z,19.30
2017-09-09T23:43:27.968Z,19.30
2017-09-09T23:45:57.247Z,19.30
2017-09-09T23:48:26.775Z,19.30
2017-09-09T23:50:56.732Z,19.40
2017-09-09T23:53:26.503Z,19.30
2017-09-09T23:55:55.395Z,19.30
2017-09-09T23:58:24.686Z,19.30
